Other Surface Observations
Issued by NWS Great Falls, MT

Home | Current Version | Previous Version | Text Only | Print | Product List | Glossary On
Versions: 1 2 3 4 5 6 7 8 9 10 11 12 13 14 15 16 17 18 19 20 21 22 23 24 25 26 27 28 29 30 31 32 33 34 35 36 37 38 39 40 41 42 43 44 45 46 47 48 49 50
000
SXUS55 KTFX 311812
OSOTFX

AREA AWOS OBSERVATIONS
NATIONAL WEATHER SERVICE GREAT FALLS MT
1208 PM MDT Mon Aug 31 2015

METAR K6S8 311755Z AUTO 07000KT 25SM 21/05 A2998 RMK A01 T02110050
METAR K7S0 311755Z AUTO 15004KT 40SM 16/06 A3008 RMK A01 T01610055
METAR K7S1 311755Z AUTO 18005KT 40SM 19/02 A3006 RMK A01 T01940022
METAR K97M 311755Z AUTO 26003KT 40SM 21/04 A2999 RMK A01 T02050044
METAR K9S2 311755Z AUTO 24018KT 40SM 20/04 A2985 RMK A01 T02000044
METAR K9S5 311755Z AUTO 07000KT 25SM 19/01 A3004 RMK A01 T01940011
METAR KM75 311755Z AUTO 25011KT 40SM 22/04 A2984 RMK A01 T02220038
METAR KRPX 311755Z AUTO 18007KT 40SM 21/03 A2989 RMK A01 T02050027
METAR KS01 311755Z AUTO 12011KT 25SM 21/04 A2993 RMK A01 T02050038
METAR KS34 311755Z AUTO 16006KT 25SM 19/03 A3003 RMK A01 T01940033
METAR KTHM 311755Z AUTO 27009KT 40SM 18/04 A3007 RMK A01 T01770044
METAR KTHM 311655Z AUTO 30005KT 40SM 17/06 A3008 RMK A01 T01720055



USA.gov is the U.S. government's official web portal to all federal, state and local government web resources and services.